sensor_id;sensor_type;location;lat;lon;timestamp;P1;durP1;ratioP1;P2;durP2;ratioP2
19016;SDS011;9641;51.494;6.670;2023-08-17T00:00:24;5.07;;;3.65;;
19016;SDS011;9641;51.494;6.670;2023-08-17T00:02:53;5.18;;;3.55;;
19016;SDS011;9641;51.494;6.670;2023-08-17T00:05:21;5.57;;;3.70;;
19016;SDS011;9641;51.494;6.670;2023-08-17T00:07:48;5.65;;;3.30;;
19016;SDS011;9641;51.494;6.670;2023-08-17T00:10:19;8.80;;;3.50;;
19016;SDS011;9641;51.494;6.670;2023-08-17T00:12:46;4.00;;;3.42;;
19016;SDS011;9641;51.494;6.670;2023-08-17T00:15:15;6.32;;;3.25;;
19016;SDS011;9641;51.494;6.670;2023-08-17T00:17:42;4.65;;;3.67;;
19016;SDS011;9641;51.494;6.670;2023-08-17T00:20:10;6.85;;;3.22;;
19016;SDS011;9641;51.494;6.670;2023-08-17T00:22:38;4.00;;;3.50;;
19016;SDS011;9641;51.494;6.670;2023-08-17T00:25:07;6.45;;;3.80;;
19016;SDS011;9641;51.494;6.670;2023-08-17T00:27:39;6.30;;;3.77;;
19016;SDS011;9641;51.494;6.670;2023-08-17T00:30:08;6.38;;;3.72;;
19016;SDS011;9641;51.494;6.670;2023-08-17T00:32:36;7.10;;;3.97;;
19016;SDS011;9641;51.494;6.670;2023-08-17T00:35:07;7.07;;;3.93;;
19016;SDS011;9641;51.494;6.670;2023-08-17T00:37:35;5.13;;;3.70;;
19016;SDS011;9641;51.494;6.670;2023-08-17T00:40:03;8.37;;;4.00;;
19016;SDS011;9641;51.494;6.670;2023-08-17T00:42:31;8.32;;;4.05;;
19016;SDS011;9641;51.494;6.670;2023-08-17T00:45:05;8.55;;;4.40;;
19016;SDS011;9641;51.494;6.670;2023-08-17T00:47:33;5.03;;;3.92;;
19016;SDS011;9641;51.494;6.670;2023-08-17T00:50:01;6.28;;;3.88;;
19016;SDS011;9641;51.494;6.670;2023-08-17T00:52:30;4.18;;;3.78;;
19016;SDS011;9641;51.494;6.670;2023-08-17T00:55:00;5.13;;;4.07;;
19016;SDS011;9641;51.494;6.670;2023-08-17T00:57:29;5.57;;;3.77;;
19016;SDS011;9641;51.494;6.670;2023-08-17T01:00:00;8.07;;;4.20;;
19016;SDS011;9641;51.494;6.670;2023-08-17T01:02:33;4.37;;;3.80;;
19016;SDS011;9641;51.494;6.670;2023-08-17T01:05:01;7.00;;;4.03;;
19016;SDS011;9641;51.494;6.670;2023-08-17T01:07:31;7.17;;;4.50;;
19016;SDS011;9641;51.494;6.670;2023-08-17T01:10:07;5.73;;;4.67;;
19016;SDS011;9641;51.494;6.670;2023-08-17T01:12:37;8.47;;;5.13;;
19016;SDS011;9641;51.494;6.670;2023-08-17T01:15:10;6.97;;;4.87;;
19016;SDS011;9641;51.494;6.670;2023-08-17T01:17:44;7.90;;;4.80;;
19016;SDS011;9641;51.494;6.670;2023-08-17T01:20:21;7.37;;;4.93;;
19016;SDS011;9641;51.494;6.670;2023-08-17T01:22:51;7.57;;;5.40;;
19016;SDS011;9641;51.494;6.670;2023-08-17T01:25:24;6.27;;;4.90;;
19016;SDS011;9641;51.494;6.670;2023-08-17T01:27:52;9.37;;;5.00;;
19016;SDS011;9641;51.494;6.670;2023-08-17T01:30:19;7.20;;;4.77;;
19016;SDS011;9641;51.494;6.670;2023-08-17T01:32:49;5.47;;;4.87;;
19016;SDS011;9641;51.494;6.670;2023-08-17T01:35:26;6.43;;;4.93;;
19016;SDS011;9641;51.494;6.670;2023-08-17T01:38:00;5.27;;;4.53;;
19016;SDS011;9641;51.494;6.670;2023-08-17T01:40:34;7.30;;;4.67;;
19016;SDS011;9641;51.494;6.670;2023-08-17T01:43:03;8.40;;;4.70;;
19016;SDS011;9641;51.494;6.670;2023-08-17T01:45:31;7.03;;;5.00;;
19016;SDS011;9641;51.494;6.670;2023-08-17T01:48:00;6.30;;;4.40;;
19016;SDS011;9641;51.494;6.670;2023-08-17T01:50:30;7.53;;;4.63;;
19016;SDS011;9641;51.494;6.670;2023-08-17T01:52:57;7.77;;;4.73;;
19016;SDS011;9641;51.494;6.670;2023-08-17T01:55:25;7.23;;;4.73;;
19016;SDS011;9641;51.494;6.670;2023-08-17T01:57:54;4.97;;;4.47;;
19016;SDS011;9641;51.494;6.670;2023-08-17T02:00:21;7.13;;;5.17;;
19016;SDS011;9641;51.494;6.670;2023-08-17T02:02:49;6.40;;;4.68;;
19016;SDS011;9641;51.494;6.670;2023-08-17T02:05:18;7.00;;;4.53;;
19016;SDS011;9641;51.494;6.670;2023-08-17T02:07:46;7.17;;;4.30;;
19016;SDS011;9641;51.494;6.670;2023-08-17T02:10:13;11.63;;;5.73;;
19016;SDS011;9641;51.494;6.670;2023-08-17T02:12:41;7.37;;;5.00;;
19016;SDS011;9641;51.494;6.670;2023-08-17T02:15:10;9.67;;;5.90;;
19016;SDS011;9641;51.494;6.670;2023-08-17T02:17:38;12.50;;;5.97;;
19016;SDS011;9641;51.494;6.670;2023-08-17T02:20:06;6.00;;;5.07;;
19016;SDS011;9641;51.494;6.670;2023-08-17T02:22:34;6.50;;;4.57;;
19016;SDS011;9641;51.494;6.670;2023-08-17T02:25:01;11.07;;;4.53;;
19016;SDS011;9641;51.494;6.670;2023-08-17T02:27:29;9.40;;;4.70;;
19016;SDS011;9641;51.494;6.670;2023-08-17T02:29:57;9.97;;;4.50;;
19016;SDS011;9641;51.494;6.670;2023-08-17T02:32:29;6.03;;;4.20;;
19016;SDS011;9641;51.494;6.670;2023-08-17T02:34:56;5.20;;;4.33;;
19016;SDS011;9641;51.494;6.670;2023-08-17T02:37:24;6.13;;;4.13;;
19016;SDS011;9641;51.494;6.670;2023-08-17T02:39:52;9.00;;;4.43;;
19016;SDS011;9641;51.494;6.670;2023-08-17T02:42:21;7.43;;;4.70;;
19016;SDS011;9641;51.494;6.670;2023-08-17T02:44:50;8.60;;;4.93;;
19016;SDS011;9641;51.494;6.670;2023-08-17T02:47:23;7.97;;;4.57;;
19016;SDS011;9641;51.494;6.670;2023-08-17T02:49:54;5.03;;;4.40;;
19016;SDS011;9641;51.494;6.670;2023-08-17T02:52:36;7.73;;;4.47;;
19016;SDS011;9641;51.494;6.670;2023-08-17T02:55:05;8.45;;;4.63;;
19016;SDS011;9641;51.494;6.670;2023-08-17T02:57:33;9.88;;;4.85;;
19016;SDS011;9641;51.494;6.670;2023-08-17T03:00:00;7.40;;;4.30;;
19016;SDS011;9641;51.494;6.670;2023-08-17T03:02:29;7.20;;;4.33;;
19016;SDS011;9641;51.494;6.670;2023-08-17T03:05:03;5.37;;;4.50;;
19016;SDS011;9641;51.494;6.670;2023-08-17T03:07:31;7.17;;;4.77;;
19016;SDS011;9641;51.494;6.670;2023-08-17T03:10:00;6.53;;;4.50;;
19016;SDS011;9641;51.494;6.670;2023-08-17T03:12:28;6.40;;;4.00;;
19016;SDS011;9641;51.494;6.670;2023-08-17T03:15:02;9.47;;;4.40;;
19016;SDS011;9641;51.494;6.670;2023-08-17T03:17:30;6.90;;;4.87;;
19016;SDS011;9641;51.494;6.670;2023-08-17T03:19:59;13.00;;;4.63;;
19016;SDS011;9641;51.494;6.670;2023-08-17T03:22:33;14.07;;;5.00;;
19016;SDS011;9641;51.494;6.670;2023-08-17T03:25:03;6.47;;;4.13;;
19016;SDS011;9641;51.494;6.670;2023-08-17T03:27:32;6.33;;;4.57;;
19016;SDS011;9641;51.494;6.670;2023-08-17T03:30:00;5.60;;;4.57;;
19016;SDS011;9641;51.494;6.670;2023-08-17T03:32:32;10.47;;;4.80;;
19016;SDS011;9641;51.494;6.670;2023-08-17T03:34:59;8.27;;;4.40;;
19016;SDS011;9641;51.494;6.670;2023-08-17T03:37:27;9.27;;;5.20;;
19016;SDS011;9641;51.494;6.670;2023-08-17T03:39:56;10.17;;;5.00;;
19016;SDS011;9641;51.494;6.670;2023-08-17T03:42:23;7.33;;;5.03;;
19016;SDS011;9641;51.494;6.670;2023-08-17T03:44:51;8.10;;;4.87;;
19016;SDS011;9641;51.494;6.670;2023-08-17T03:47:20;6.13;;;4.83;;
19016;SDS011;9641;51.494;6.670;2023-08-17T03:49:47;7.30;;;5.00;;
19016;SDS011;9641;51.494;6.670;2023-08-17T03:52:15;6.50;;;4.90;;
19016;SDS011;9641;51.494;6.670;2023-08-17T03:54:43;7.63;;;5.20;;
19016;SDS011;9641;51.494;6.670;2023-08-17T03:57:17;6.63;;;5.53;;
19016;SDS011;9641;51.494;6.670;2023-08-17T03:59:45;7.47;;;5.30;;
19016;SDS011;9641;51.494;6.670;2023-08-17T04:02:13;9.83;;;6.17;;
19016;SDS011;9641;51.494;6.670;2023-08-17T04:04:40;7.73;;;5.33;;
19016;SDS011;9641;51.494;6.670;2023-08-17T04:07:07;6.10;;;5.50;;
19016;SDS011;9641;51.494;6.670;2023-08-17T04:09:34;9.00;;;5.90;;
19016;SDS011;9641;51.494;6.670;2023-08-17T04:12:03;12.53;;;5.70;;
19016;SDS011;9641;51.494;6.670;2023-08-17T04:14:34;6.27;;;5.43;;
19016;SDS011;9641;51.494;6.670;2023-08-17T04:17:01;8.27;;;5.70;;
19016;SDS011;9641;51.494;6.670;2023-08-17T04:19:28;11.20;;;6.47;;
19016;SDS011;9641;51.494;6.670;2023-08-17T04:21:55;6.03;;;5.23;;
19016;SDS011;9641;51.494;6.670;2023-08-17T04:24:22;9.37;;;6.20;;
19016;SDS011;9641;51.494;6.670;2023-08-17T04:26:49;6.47;;;5.40;;
19016;SDS011;9641;51.494;6.670;2023-08-17T04:29:16;9.13;;;5.77;;
19016;SDS011;9641;51.494;6.670;2023-08-17T04:31:45;11.07;;;6.33;;
19016;SDS011;9641;51.494;6.670;2023-08-17T04:34:12;7.13;;;5.77;;
19016;SDS011;9641;51.494;6.670;2023-08-17T04:36:39;10.10;;;5.43;;
19016;SDS011;9641;51.494;6.670;2023-08-17T04:39:06;10.03;;;5.57;;
19016;SDS011;9641;51.494;6.670;2023-08-17T04:41:34;10.03;;;4.97;;
19016;SDS011;9641;51.494;6.670;2023-08-17T04:44:04;8.03;;;5.37;;
19016;SDS011;9641;51.494;6.670;2023-08-17T04:46:31;10.57;;;5.80;;
19016;SDS011;9641;51.494;6.670;2023-08-17T04:48:59;8.70;;;5.33;;
19016;SDS011;9641;51.494;6.670;2023-08-17T04:51:26;7.00;;;5.13;;
19016;SDS011;9641;51.494;6.670;2023-08-17T04:53:54;9.73;;;5.70;;
19016;SDS011;9641;51.494;6.670;2023-08-17T04:56:21;12.37;;;6.30;;
19016;SDS011;9641;51.494;6.670;2023-08-17T04:58:49;7.60;;;5.40;;
19016;SDS011;9641;51.494;6.670;2023-08-17T05:01:16;11.37;;;5.60;;
19016;SDS011;9641;51.494;6.670;2023-08-17T05:03:44;8.73;;;5.53;;
19016;SDS011;9641;51.494;6.670;2023-08-17T05:06:14;6.80;;;5.83;;
19016;SDS011;9641;51.494;6.670;2023-08-17T05:08:42;5.47;;;4.90;;
19016;SDS011;9641;51.494;6.670;2023-08-17T05:11:09;10.93;;;5.43;;
19016;SDS011;9641;51.494;6.670;2023-08-17T05:13:36;8.70;;;5.90;;
19016;SDS011;9641;51.494;6.670;2023-08-17T05:16:04;9.63;;;5.70;;
19016;SDS011;9641;51.494;6.670;2023-08-17T05:18:34;8.97;;;4.80;;
19016;SDS011;9641;51.494;6.670;2023-08-17T05:21:01;8.33;;;5.87;;
19016;SDS011;9641;51.494;6.670;2023-08-17T05:23:32;11.77;;;5.93;;
19016;SDS011;9641;51.494;6.670;2023-08-17T05:25:59;9.43;;;6.13;;
19016;SDS011;9641;51.494;6.670;2023-08-17T05:28:26;8.67;;;5.47;;
19016;SDS011;9641;51.494;6.670;2023-08-17T05:30:54;6.27;;;5.67;;
19016;SDS011;9641;51.494;6.670;2023-08-17T05:33:21;11.87;;;5.87;;
19016;SDS011;9641;51.494;6.670;2023-08-17T05:35:52;9.33;;;6.10;;
19016;SDS011;9641;51.494;6.670;2023-08-17T05:38:20;11.77;;;6.63;;
19016;SDS011;9641;51.494;6.670;2023-08-17T05:40:48;8.23;;;5.90;;
19016;SDS011;9641;51.494;6.670;2023-08-17T05:43:21;7.77;;;5.40;;
19016;SDS011;9641;51.494;6.670;2023-08-17T05:45:49;9.07;;;4.70;;
19016;SDS011;9641;51.494;6.670;2023-08-17T05:48:18;12.07;;;6.00;;
19016;SDS011;9641;51.494;6.670;2023-08-17T05:50:46;9.23;;;6.00;;
19016;SDS011;9641;51.494;6.670;2023-08-17T05:53:12;10.07;;;5.60;;
19016;SDS011;9641;51.494;6.670;2023-08-17T05:55:39;12.93;;;6.47;;
19016;SDS011;9641;51.494;6.670;2023-08-17T05:58:08;6.53;;;5.63;;
19016;SDS011;9641;51.494;6.670;2023-08-17T06:00:35;9.13;;;5.67;;
19016;SDS011;9641;51.494;6.670;2023-08-17T06:03:05;9.33;;;6.17;;
19016;SDS011;9641;51.494;6.670;2023-08-17T06:05:32;9.33;;;5.30;;
19016;SDS011;9641;51.494;6.670;2023-08-17T06:07:59;7.90;;;5.53;;
19016;SDS011;9641;51.494;6.670;2023-08-17T06:10:26;9.20;;;5.82;;
19016;SDS011;9641;51.494;6.670;2023-08-17T06:12:53;7.70;;;5.40;;
19016;SDS011;9641;51.494;6.670;2023-08-17T06:15:22;10.43;;;5.83;;
19016;SDS011;9641;51.494;6.670;2023-08-17T06:17:50;12.47;;;5.50;;
19016;SDS011;9641;51.494;6.670;2023-08-17T06:20:17;7.80;;;6.13;;
19016;SDS011;9641;51.494;6.670;2023-08-17T06:22:44;11.27;;;6.10;;
19016;SDS011;9641;51.494;6.670;2023-08-17T06:25:14;11.10;;;6.17;;
19016;SDS011;9641;51.494;6.670;2023-08-17T06:27:41;11.57;;;6.70;;
19016;SDS011;9641;51.494;6.670;2023-08-17T06:30:09;9.37;;;6.57;;
19016;SDS011;9641;51.494;6.670;2023-08-17T06:32:38;9.77;;;6.10;;
19016;SDS011;9641;51.494;6.670;2023-08-17T06:35:05;7.93;;;5.67;;
19016;SDS011;9641;51.494;6.670;2023-08-17T06:37:33;8.00;;;6.07;;
19016;SDS011;9641;51.494;6.670;2023-08-17T06:40:00;11.83;;;6.13;;
19016;SDS011;9641;51.494;6.670;2023-08-17T06:42:28;10.07;;;6.00;;
19016;SDS011;9641;51.494;6.670;2023-08-17T06:44:55;9.27;;;6.40;;
19016;SDS011;9641;51.494;6.670;2023-08-17T06:47:22;9.97;;;6.30;;
19016;SDS011;9641;51.494;6.670;2023-08-17T06:49:50;9.53;;;6.57;;
19016;SDS011;9641;51.494;6.670;2023-08-17T06:52:17;12.53;;;6.73;;
19016;SDS011;9641;51.494;6.670;2023-08-17T06:54:44;8.93;;;6.17;;
19016;SDS011;9641;51.494;6.670;2023-08-17T06:57:11;10.73;;;7.37;;
19016;SDS011;9641;51.494;6.670;2023-08-17T06:59:38;14.53;;;7.77;;
19016;SDS011;9641;51.494;6.670;2023-08-17T07:02:05;11.20;;;7.07;;
19016;SDS011;9641;51.494;6.670;2023-08-17T07:04:33;8.53;;;6.67;;
19016;SDS011;9641;51.494;6.670;2023-08-17T07:07:01;13.50;;;7.60;;
19016;SDS011;9641;51.494;6.670;2023-08-17T07:09:28;9.53;;;6.43;;
19016;SDS011;9641;51.494;6.670;2023-08-17T07:11:57;13.33;;;7.53;;
19016;SDS011;9641;51.494;6.670;2023-08-17T07:14:24;12.43;;;7.87;;
19016;SDS011;9641;51.494;6.670;2023-08-17T07:16:50;17.83;;;8.63;;
19016;SDS011;9641;51.494;6.670;2023-08-17T07:19:18;16.17;;;9.20;;
19016;SDS011;9641;51.494;6.670;2023-08-17T07:21:45;17.63;;;9.10;;
19016;SDS011;9641;51.494;6.670;2023-08-17T07:24:14;11.57;;;8.43;;
19016;SDS011;9641;51.494;6.670;2023-08-17T07:26:42;17.60;;;9.13;;
19016;SDS011;9641;51.494;6.670;2023-08-17T07:29:10;15.30;;;10.10;;
19016;SDS011;9641;51.494;6.670;2023-08-17T07:31:37;15.37;;;10.00;;
19016;SDS011;9641;51.494;6.670;2023-08-17T07:34:04;17.57;;;11.93;;
19016;SDS011;9641;51.494;6.670;2023-08-17T07:36:32;16.30;;;11.00;;
19016;SDS011;9641;51.494;6.670;2023-08-17T07:39:00;23.03;;;12.10;;
19016;SDS011;9641;51.494;6.670;2023-08-17T07:41:28;20.30;;;12.03;;
19016;SDS011;9641;51.494;6.670;2023-08-17T07:43:55;46.23;;;29.23;;
19016;SDS011;9641;51.494;6.670;2023-08-17T07:46:22;22.37;;;13.17;;
19016;SDS011;9641;51.494;6.670;2023-08-17T07:48:49;23.37;;;13.13;;
19016;SDS011;9641;51.494;6.670;2023-08-17T07:51:16;20.67;;;11.83;;
19016;SDS011;9641;51.494;6.670;2023-08-17T07:53:43;20.80;;;13.00;;
19016;SDS011;9641;51.494;6.670;2023-08-17T07:56:10;22.10;;;13.67;;
19016;SDS011;9641;51.494;6.670;2023-08-17T07:58:38;22.63;;;13.00;;
19016;SDS011;9641;51.494;6.670;2023-08-17T08:01:06;19.37;;;12.93;;
19016;SDS011;9641;51.494;6.670;2023-08-17T08:03:33;25.03;;;14.17;;
19016;SDS011;9641;51.494;6.670;2023-08-17T08:06:00;19.97;;;14.33;;
19016;SDS011;9641;51.494;6.670;2023-08-17T08:08:27;21.03;;;13.97;;
19016;SDS011;9641;51.494;6.670;2023-08-17T08:10:54;23.63;;;14.30;;
19016;SDS011;9641;51.494;6.670;2023-08-17T08:13:21;21.90;;;12.67;;
19016;SDS011;9641;51.494;6.670;2023-08-17T08:15:50;20.63;;;13.03;;
19016;SDS011;9641;51.494;6.670;2023-08-17T08:18:17;22.47;;;12.57;;
19016;SDS011;9641;51.494;6.670;2023-08-17T08:20:45;23.33;;;15.10;;
19016;SDS011;9641;51.494;6.670;2023-08-17T08:23:12;23.87;;;14.73;;
19016;SDS011;9641;51.494;6.670;2023-08-17T08:25:40;24.70;;;15.23;;
19016;SDS011;9641;51.494;6.670;2023-08-17T08:28:09;20.23;;;13.83;;
19016;SDS011;9641;51.494;6.670;2023-08-17T08:30:39;26.57;;;14.83;;
19016;SDS011;9641;51.494;6.670;2023-08-17T08:33:25;26.07;;;15.83;;
19016;SDS011;9641;51.494;6.670;2023-08-17T08:35:52;24.00;;;15.13;;
19016;SDS011;9641;51.494;6.670;2023-08-17T08:38:19;21.73;;;14.43;;
19016;SDS011;9641;51.494;6.670;2023-08-17T08:40:47;26.20;;;14.90;;
19016;SDS011;9641;51.494;6.670;2023-08-17T08:43:15;26.13;;;14.80;;
19016;SDS011;9641;51.494;6.670;2023-08-17T08:45:48;25.43;;;15.10;;
19016;SDS011;9641;51.494;6.670;2023-08-17T08:48:18;24.60;;;15.93;;
19016;SDS011;9641;51.494;6.670;2023-08-17T08:50:47;34.37;;;18.30;;
19016;SDS011;9641;51.494;6.670;2023-08-17T08:53:17;31.67;;;17.90;;
19016;SDS011;9641;51.494;6.670;2023-08-17T08:55:57;29.27;;;18.60;;
19016;SDS011;9641;51.494;6.670;2023-08-17T08:58:25;34.50;;;18.67;;
19016;SDS011;9641;51.494;6.670;2023-08-17T09:00:52;29.97;;;19.63;;
19016;SDS011;9641;51.494;6.670;2023-08-17T09:03:20;30.53;;;21.00;;
19016;SDS011;9641;51.494;6.670;2023-08-17T09:06:05;31.17;;;19.30;;
19016;SDS011;9641;51.494;6.670;2023-08-17T09:08:35;29.17;;;19.33;;
19016;SDS011;9641;51.494;6.670;2023-08-17T09:11:03;24.37;;;17.47;;
19016;SDS011;9641;51.494;6.670;2023-08-17T09:13:30;28.03;;;19.13;;
19016;SDS011;9641;51.494;6.670;2023-08-17T09:16:01;30.67;;;19.50;;
19016;SDS011;9641;51.494;6.670;2023-08-17T09:18:29;30.90;;;19.43;;
19016;SDS011;9641;51.494;6.670;2023-08-17T09:20:57;24.87;;;17.90;;
19016;SDS011;9641;51.494;6.670;2023-08-17T09:23:25;35.27;;;21.50;;
19016;SDS011;9641;51.494;6.670;2023-08-17T09:25:52;31.40;;;21.07;;
19016;SDS011;9641;51.494;6.670;2023-08-17T09:28:23;33.90;;;21.00;;
19016;SDS011;9641;51.494;6.670;2023-08-17T09:30:53;32.28;;;20.73;;
19016;SDS011;9641;51.494;6.670;2023-08-17T09:33:22;27.42;;;20.23;;
19016;SDS011;9641;51.494;6.670;2023-08-17T09:35:50;33.83;;;21.55;;
19016;SDS011;9641;51.494;6.670;2023-08-17T09:38:17;29.97;;;22.67;;
19016;SDS011;9641;51.494;6.670;2023-08-17T09:40:46;35.60;;;23.00;;
19016;SDS011;9641;51.494;6.670;2023-08-17T09:43:13;29.93;;;21.40;;
19016;SDS011;9641;51.494;6.670;2023-08-17T09:45:42;33.55;;;22.85;;
19016;SDS011;9641;51.494;6.670;2023-08-17T09:48:13;31.65;;;23.50;;
19016;SDS011;9641;51.494;6.670;2023-08-17T09:50:42;36.10;;;24.07;;
19016;SDS011;9641;51.494;6.670;2023-08-17T09:53:12;37.53;;;22.73;;
19016;SDS011;9641;51.494;6.670;2023-08-17T09:58:09;33.83;;;20.75;;
19016;SDS011;9641;51.494;6.670;2023-08-17T10:00:40;32.83;;;21.42;;
19016;SDS011;9641;51.494;6.670;2023-08-17T10:03:14;28.67;;;19.45;;
19016;SDS011;9641;51.494;6.670;2023-08-17T10:05:43;27.95;;;19.50;;
19016;SDS011;9641;51.494;6.670;2023-08-17T10:08:11;28.83;;;21.27;;
19016;SDS011;9641;51.494;6.670;2023-08-17T10:10:40;28.70;;;20.45;;
19016;SDS011;9641;51.494;6.670;2023-08-17T10:13:11;31.33;;;21.23;;
19016;SDS011;9641;51.494;6.670;2023-08-17T10:15:44;29.58;;;18.25;;
19016;SDS011;9641;51.494;6.670;2023-08-17T10:18:20;28.45;;;18.45;;
19016;SDS011;9641;51.494;6.670;2023-08-17T10:20:58;25.15;;;17.48;;
19016;SDS011;9641;51.494;6.670;2023-08-17T10:23:30;25.23;;;16.15;;
19016;SDS011;9641;51.494;6.670;2023-08-17T10:25:57;26.85;;;17.35;;
19016;SDS011;9641;51.494;6.670;2023-08-17T10:28:28;20.23;;;16.15;;
19016;SDS011;9641;51.494;6.670;2023-08-17T10:30:57;29.23;;;18.58;;
19016;SDS011;9641;51.494;6.670;2023-08-17T10:33:24;28.02;;;19.98;;
19016;SDS011;9641;51.494;6.670;2023-08-17T10:35:52;28.08;;;18.63;;
19016;SDS011;9641;51.494;6.670;2023-08-17T10:38:19;23.42;;;18.13;;
19016;SDS011;9641;51.494;6.670;2023-08-17T10:40:47;30.38;;;19.45;;
19016;SDS011;9641;51.494;6.670;2023-08-17T10:43:35;25.15;;;17.52;;
19016;SDS011;9641;51.494;6.670;2023-08-17T10:46:20;28.95;;;17.02;;
19016;SDS011;9641;51.494;6.670;2023-08-17T10:48:47;23.20;;;16.55;;
19016;SDS011;9641;51.494;6.670;2023-08-17T10:51:15;21.13;;;16.27;;
19016;SDS011;9641;51.494;6.670;2023-08-17T10:53:53;23.02;;;17.02;;
19016;SDS011;9641;51.494;6.670;2023-08-17T10:56:26;25.92;;;17.92;;
19016;SDS011;9641;51.494;6.670;2023-08-17T10:58:55;24.35;;;17.42;;
19016;SDS011;9641;51.494;6.670;2023-08-17T11:01:33;27.60;;;17.50;;
19016;SDS011;9641;51.494;6.670;2023-08-17T11:04:08;21.58;;;16.50;;
19016;SDS011;9641;51.494;6.670;2023-08-17T11:06:37;24.95;;;14.55;;
19016;SDS011;9641;51.494;6.670;2023-08-17T11:09:07;22.00;;;13.88;;
19016;SDS011;9641;51.494;6.670;2023-08-17T11:11:37;22.73;;;14.05;;
19016;SDS011;9641;51.494;6.670;2023-08-17T11:14:09;23.75;;;15.82;;
19016;SDS011;9641;51.494;6.670;2023-08-17T11:16:37;22.50;;;13.75;;
19016;SDS011;9641;51.494;6.670;2023-08-17T11:19:10;19.58;;;14.48;;
19016;SDS011;9641;51.494;6.670;2023-08-17T11:21:43;24.15;;;15.10;;
19016;SDS011;9641;51.494;6.670;2023-08-17T11:24:14;24.05;;;14.15;;
19016;SDS011;9641;51.494;6.670;2023-08-17T11:32:22;21.73;;;14.32;;
19016;SDS011;9641;51.494;6.670;2023-08-17T11:34:49;23.05;;;14.38;;
19016;SDS011;9641;51.494;6.670;2023-08-17T11:37:20;27.52;;;15.02;;
19016;SDS011;9641;51.494;6.670;2023-08-17T11:39:48;25.90;;;17.20;;
19016;SDS011;9641;51.494;6.670;2023-08-17T11:42:16;23.27;;;16.35;;
19016;SDS011;9641;51.494;6.670;2023-08-17T11:44:43;28.38;;;18.05;;
19016;SDS011;9641;51.494;6.670;2023-08-17T11:47:11;26.40;;;17.75;;
19016;SDS011;9641;51.494;6.670;2023-08-17T11:49:40;24.45;;;17.55;;
19016;SDS011;9641;51.494;6.670;2023-08-17T11:52:09;22.65;;;16.45;;
19016;SDS011;9641;51.494;6.670;2023-08-17T12:02:48;24.95;;;15.85;;
19016;SDS011;9641;51.494;6.670;2023-08-17T12:05:22;24.60;;;16.77;;
19016;SDS011;9641;51.494;6.670;2023-08-17T12:07:52;27.48;;;16.00;;
19016;SDS011;9641;51.494;6.670;2023-08-17T12:10:21;20.45;;;15.73;;
19016;SDS011;9641;51.494;6.670;2023-08-17T12:12:49;22.40;;;16.35;;
19016;SDS011;9641;51.494;6.670;2023-08-17T12:15:17;24.40;;;16.45;;
19016;SDS011;9641;51.494;6.670;2023-08-17T12:17:49;19.85;;;15.90;;
19016;SDS011;9641;51.494;6.670;2023-08-17T12:20:18;22.55;;;16.83;;
19016;SDS011;9641;51.494;6.670;2023-08-17T12:22:47;29.13;;;18.48;;
19016;SDS011;9641;51.494;6.670;2023-08-17T12:25:14;29.10;;;16.80;;
19016;SDS011;9641;51.494;6.670;2023-08-17T12:27:41;28.05;;;18.15;;
19016;SDS011;9641;51.494;6.670;2023-08-17T12:35:34;29.38;;;22.13;;
19016;SDS011;9641;51.494;6.670;2023-08-17T12:38:06;26.90;;;20.23;;
19016;SDS011;9641;51.494;6.670;2023-08-17T12:40:33;24.77;;;21.05;;
19016;SDS011;9641;51.494;6.670;2023-08-17T12:43:03;25.77;;;19.95;;
19016;SDS011;9641;51.494;6.670;2023-08-17T12:45:35;28.40;;;20.33;;
19016;SDS011;9641;51.494;6.670;2023-08-17T12:48:02;27.35;;;20.83;;
19016;SDS011;9641;51.494;6.670;2023-08-17T12:50:30;29.00;;;20.73;;
19016;SDS011;9641;51.494;6.670;2023-08-17T12:52:57;26.13;;;19.55;;
19016;SDS011;9641;51.494;6.670;2023-08-17T12:55:26;27.92;;;20.65;;
19016;SDS011;9641;51.494;6.670;2023-08-17T12:57:53;34.38;;;25.48;;
19016;SDS011;9641;51.494;6.670;2023-08-17T13:00:20;38.97;;;30.20;;
19016;SDS011;9641;51.494;6.670;2023-08-17T13:02:48;40.08;;;29.15;;
19016;SDS011;9641;51.494;6.670;2023-08-17T13:05:16;40.08;;;28.27;;
19016;SDS011;9641;51.494;6.670;2023-08-17T13:07:44;30.98;;;23.13;;
19016;SDS011;9641;51.494;6.670;2023-08-17T13:10:11;26.08;;;20.55;;
19016;SDS011;9641;51.494;6.670;2023-08-17T13:12:41;28.58;;;22.33;;
19016;SDS011;9641;51.494;6.670;2023-08-17T13:15:12;31.70;;;22.30;;
19016;SDS011;9641;51.494;6.670;2023-08-17T13:17:39;29.05;;;21.85;;
19016;SDS011;9641;51.494;6.670;2023-08-17T13:20:07;29.75;;;22.25;;
19016;SDS011;9641;51.494;6.670;2023-08-17T13:22:35;29.15;;;21.83;;
19016;SDS011;9641;51.494;6.670;2023-08-17T13:25:03;34.55;;;23.55;;
19016;SDS011;9641;51.494;6.670;2023-08-17T13:27:31;29.88;;;23.05;;
19016;SDS011;9641;51.494;6.670;2023-08-17T13:29:59;36.25;;;22.98;;
19016;SDS011;9641;51.494;6.670;2023-08-17T13:32:27;30.27;;;21.58;;
19016;SDS011;9641;51.494;6.670;2023-08-17T13:34:54;25.90;;;20.17;;
19016;SDS011;9641;51.494;6.670;2023-08-17T13:37:22;26.25;;;20.40;;
19016;SDS011;9641;51.494;6.670;2023-08-17T13:39:55;26.13;;;19.95;;
19016;SDS011;9641;51.494;6.670;2023-08-17T13:42:24;28.63;;;21.27;;
19016;SDS011;9641;51.494;6.670;2023-08-17T13:44:51;30.20;;;22.30;;
19016;SDS011;9641;51.494;6.670;2023-08-17T13:47:20;30.27;;;22.67;;
19016;SDS011;9641;51.494;6.670;2023-08-17T13:49:49;37.28;;;25.33;;
19016;SDS011;9641;51.494;6.670;2023-08-17T13:52:17;35.92;;;27.13;;
19016;SDS011;9641;51.494;6.670;2023-08-17T13:54:44;39.10;;;27.30;;
19016;SDS011;9641;51.494;6.670;2023-08-17T13:57:12;41.30;;;28.55;;
19016;SDS011;9641;51.494;6.670;2023-08-17T13:59:39;38.70;;;25.30;;
19016;SDS011;9641;51.494;6.670;2023-08-17T14:02:07;31.88;;;23.00;;
19016;SDS011;9641;51.494;6.670;2023-08-17T14:04:36;32.45;;;23.85;;
19016;SDS011;9641;51.494;6.670;2023-08-17T14:07:03;37.35;;;25.15;;
19016;SDS011;9641;51.494;6.670;2023-08-17T14:09:30;33.35;;;23.27;;
19016;SDS011;9641;51.494;6.670;2023-08-17T14:11:59;30.73;;;22.90;;
19016;SDS011;9641;51.494;6.670;2023-08-17T14:14:27;30.58;;;23.33;;
19016;SDS011;9641;51.494;6.670;2023-08-17T14:16:54;38.40;;;27.83;;
19016;SDS011;9641;51.494;6.670;2023-08-17T14:19:22;40.00;;;27.17;;
19016;SDS011;9641;51.494;6.670;2023-08-17T14:21:51;38.03;;;26.20;;
19016;SDS011;9641;51.494;6.670;2023-08-17T14:24:18;32.80;;;24.90;;
19016;SDS011;9641;51.494;6.670;2023-08-17T14:26:45;39.03;;;27.25;;
19016;SDS011;9641;51.494;6.670;2023-08-17T14:29:12;37.25;;;25.38;;
19016;SDS011;9641;51.494;6.670;2023-08-17T14:31:39;34.78;;;24.55;;
19016;SDS011;9641;51.494;6.670;2023-08-17T14:34:07;34.30;;;23.80;;
19016;SDS011;9641;51.494;6.670;2023-08-17T14:36:34;33.50;;;23.60;;
19016;SDS011;9641;51.494;6.670;2023-08-17T14:39:07;32.97;;;23.58;;
19016;SDS011;9641;51.494;6.670;2023-08-17T14:41:34;28.77;;;21.40;;
19016;SDS011;9641;51.494;6.670;2023-08-17T14:44:01;34.13;;;23.58;;
19016;SDS011;9641;51.494;6.670;2023-08-17T14:46:29;35.80;;;24.08;;
19016;SDS011;9641;51.494;6.670;2023-08-17T14:48:57;34.50;;;23.75;;
19016;SDS011;9641;51.494;6.670;2023-08-17T14:51:36;33.75;;;22.00;;
19016;SDS011;9641;51.494;6.670;2023-08-17T14:54:04;35.28;;;22.13;;
19016;SDS011;9641;51.494;6.670;2023-08-17T14:56:33;28.65;;;20.38;;
19016;SDS011;9641;51.494;6.670;2023-08-17T14:59:01;33.05;;;20.55;;
19016;SDS011;9641;51.494;6.670;2023-08-17T15:01:29;32.45;;;22.35;;
19016;SDS011;9641;51.494;6.670;2023-08-17T15:03:58;29.92;;;20.25;;
19016;SDS011;9641;51.494;6.670;2023-08-17T15:06:25;29.98;;;20.30;;
19016;SDS011;9641;51.494;6.670;2023-08-17T15:08:52;29.83;;;19.73;;
19016;SDS011;9641;51.494;6.670;2023-08-17T15:11:21;26.67;;;19.55;;
19016;SDS011;9641;51.494;6.670;2023-08-17T15:13:52;40.38;;;24.83;;
19016;SDS011;9641;51.494;6.670;2023-08-17T15:16:22;36.17;;;24.73;;